sensor_id;sensor_type;location;lat;lon;timestamp;temperature;humidity
30865;DHT22;17574;49.418;11.038;2023-05-07T00:01:14;13.60;69.30
30865;DHT22;17574;49.418;11.038;2023-05-07T00:03:40;13.50;70.30
30865;DHT22;17574;49.418;11.038;2023-05-07T00:08:36;13.50;71.50
30865;DHT22;17574;49.418;11.038;2023-05-07T00:13:30;13.60;71.60
30865;DHT22;17574;49.418;11.038;2023-05-07T00:28:16;13.50;75.20
30865;DHT22;17574;49.418;11.038;2023-05-07T00:30:43;13.50;76.10
30865;DHT22;17574;49.418;11.038;2023-05-07T00:33:10;13.50;76.00
30865;DHT22;17574;49.418;11.038;2023-05-07T00:35:36;13.40;75.10
30865;DHT22;17574;49.418;11.038;2023-05-07T00:38:03;13.50;74.70
30865;DHT22;17574;49.418;11.038;2023-05-07T00:42:57;13.60;74.10
30865;DHT22;17574;49.418;11.038;2023-05-07T00:45:26;13.60;76.20
30865;DHT22;17574;49.418;11.038;2023-05-07T00:47:57;13.50;76.40
30865;DHT22;17574;49.418;11.038;2023-05-07T00:50:24;13.50;79.20
30865;DHT22;17574;49.418;11.038;2023-05-07T00:52:52;14.60;80.20
30865;DHT22;17574;49.418;11.038;2023-05-07T00:55:19;11.40;76.30
30865;DHT22;17574;49.418;11.038;2023-05-07T00:57:46;13.60;78.00
30865;DHT22;17574;49.418;11.038;2023-05-07T01:00:13;13.60;77.70
30865;DHT22;17574;49.418;11.038;2023-05-07T01:02:40;13.60;77.70
30865;DHT22;17574;49.418;11.038;2023-05-07T01:05:09;13.60;75.90
30865;DHT22;17574;49.418;11.038;2023-05-07T01:07:36;13.60;75.90
30865;DHT22;17574;49.418;11.038;2023-05-07T01:10:03;13.60;76.50
30865;DHT22;17574;49.418;11.038;2023-05-07T01:12:32;13.70;76.40
30865;DHT22;17574;49.418;11.038;2023-05-07T01:14:59;13.60;74.00
30865;DHT22;17574;49.418;11.038;2023-05-07T01:17:25;13.60;74.90
30865;DHT22;17574;49.418;11.038;2023-05-07T01:19:52;13.60;74.80
30865;DHT22;17574;49.418;11.038;2023-05-07T01:22:28;13.60;73.40
30865;DHT22;17574;49.418;11.038;2023-05-07T01:24:55;13.70;73.90
30865;DHT22;17574;49.418;11.038;2023-05-07T01:27:22;13.70;73.00
30865;DHT22;17574;49.418;11.038;2023-05-07T01:29:49;13.70;72.10
30865;DHT22;17574;49.418;11.038;2023-05-07T01:32:15;13.70;71.70
30865;DHT22;17574;49.418;11.038;2023-05-07T01:34:45;13.70;71.70
30865;DHT22;17574;49.418;11.038;2023-05-07T01:37:12;13.70;71.70
30865;DHT22;17574;49.418;11.038;2023-05-07T01:39:39;13.60;73.30
30865;DHT22;17574;49.418;11.038;2023-05-07T01:42:06;13.70;75.00
30865;DHT22;17574;49.418;11.038;2023-05-07T01:44:33;13.70;76.00
30865;DHT22;17574;49.418;11.038;2023-05-07T01:47:00;13.60;77.10
30865;DHT22;17574;49.418;11.038;2023-05-07T01:49:27;13.60;77.90
30865;DHT22;17574;49.418;11.038;2023-05-07T01:51:54;13.60;76.40
30865;DHT22;17574;49.418;11.038;2023-05-07T01:54:28;13.60;74.90
30865;DHT22;17574;49.418;11.038;2023-05-07T01:56:58;13.60;76.10
30865;DHT22;17574;49.418;11.038;2023-05-07T01:59:25;13.70;75.20
30865;DHT22;17574;49.418;11.038;2023-05-07T02:01:51;13.70;75.20
30865;DHT22;17574;49.418;11.038;2023-05-07T02:04:18;13.60;75.40
30865;DHT22;17574;49.418;11.038;2023-05-07T02:06:45;15.00;76.60
30865;DHT22;17574;49.418;11.038;2023-05-07T02:09:12;13.70;74.80
30865;DHT22;17574;49.418;11.038;2023-05-07T02:11:44;13.60;74.80
30865;DHT22;17574;49.418;11.038;2023-05-07T02:14:10;13.60;73.70
30865;DHT22;17574;49.418;11.038;2023-05-07T02:16:37;13.60;74.20
30865;DHT22;17574;49.418;11.038;2023-05-07T02:19:04;13.60;75.60
30865;DHT22;17574;49.418;11.038;2023-05-07T02:21:30;13.50;76.20
30865;DHT22;17574;49.418;11.038;2023-05-07T02:23:57;13.50;76.50
30865;DHT22;17574;49.418;11.038;2023-05-07T02:26:23;13.40;77.20
30865;DHT22;17574;49.418;11.038;2023-05-07T02:28:50;13.20;77.60
30865;DHT22;17574;49.418;11.038;2023-05-07T02:31:18;12.70;77.90
30865;DHT22;17574;49.418;11.038;2023-05-07T02:33:45;13.20;78.70
30865;DHT22;17574;49.418;11.038;2023-05-07T02:36:12;13.40;78.40
30865;DHT22;17574;49.418;11.038;2023-05-07T02:38:38;13.20;77.80
30865;DHT22;17574;49.418;11.038;2023-05-07T02:41:05;13.20;77.40
30865;DHT22;17574;49.418;11.038;2023-05-07T02:43:31;13.20;76.70
30865;DHT22;17574;49.418;11.038;2023-05-07T02:46:05;13.10;76.80
30865;DHT22;17574;49.418;11.038;2023-05-07T02:48:32;13.10;77.50
30865;DHT22;17574;49.418;11.038;2023-05-07T02:50:59;13.20;78.70
30865;DHT22;17574;49.418;11.038;2023-05-07T02:53:26;13.00;79.60
30865;DHT22;17574;49.418;11.038;2023-05-07T02:55:56;13.00;79.40
30865;DHT22;17574;49.418;11.038;2023-05-07T02:58:23;12.80;79.80
30865;DHT22;17574;49.418;11.038;2023-05-07T03:00:50;13.00;80.00
30865;DHT22;17574;49.418;11.038;2023-05-07T03:03:16;12.90;79.90
30865;DHT22;17574;49.418;11.038;2023-05-07T03:05:43;12.80;80.40
30865;DHT22;17574;49.418;11.038;2023-05-07T03:08:10;12.80;80.00
30865;DHT22;17574;49.418;11.038;2023-05-07T03:10:36;12.70;80.80
30865;DHT22;17574;49.418;11.038;2023-05-07T03:13:03;12.70;82.20
30865;DHT22;17574;49.418;11.038;2023-05-07T03:15:30;12.70;82.50
30865;DHT22;17574;49.418;11.038;2023-05-07T03:17:57;12.70;83.40
30865;DHT22;17574;49.418;11.038;2023-05-07T03:20:23;12.80;83.60
30865;DHT22;17574;49.418;11.038;2023-05-07T03:22:50;12.70;83.60
30865;DHT22;17574;49.418;11.038;2023-05-07T03:25:17;10.90;83.00
30865;DHT22;17574;49.418;11.038;2023-05-07T03:27:43;12.60;83.10
30865;DHT22;17574;49.418;11.038;2023-05-07T03:30:10;12.60;83.30
30865;DHT22;17574;49.418;11.038;2023-05-07T03:32:37;12.60;83.70
30865;DHT22;17574;49.418;11.038;2023-05-07T03:35:04;12.50;83.80
30865;DHT22;17574;49.418;11.038;2023-05-07T03:37:31;12.50;84.60
30865;DHT22;17574;49.418;11.038;2023-05-07T03:39:58;12.60;85.90
30865;DHT22;17574;49.418;11.038;2023-05-07T03:42:24;12.50;84.70
30865;DHT22;17574;49.418;11.038;2023-05-07T03:44:51;12.50;85.00
30865;DHT22;17574;49.418;11.038;2023-05-07T03:47:17;12.50;84.90
30865;DHT22;17574;49.418;11.038;2023-05-07T03:49:44;12.50;84.90
30865;DHT22;17574;49.418;11.038;2023-05-07T03:52:11;12.50;85.00
30865;DHT22;17574;49.418;11.038;2023-05-07T03:54:38;12.40;85.10
30865;DHT22;17574;49.418;11.038;2023-05-07T03:57:04;12.40;84.30
30865;DHT22;17574;49.418;11.038;2023-05-07T03:59:31;12.30;85.10
30865;DHT22;17574;49.418;11.038;2023-05-07T04:01:57;12.40;84.30
30865;DHT22;17574;49.418;11.038;2023-05-07T04:04:24;12.30;85.00
30865;DHT22;17574;49.418;11.038;2023-05-07T04:06:51;12.20;85.90
30865;DHT22;17574;49.418;11.038;2023-05-07T04:09:17;12.40;85.90
30865;DHT22;17574;49.418;11.038;2023-05-07T04:11:44;12.40;86.60
30865;DHT22;17574;49.418;11.038;2023-05-07T04:14:11;12.40;86.30
30865;DHT22;17574;49.418;11.038;2023-05-07T04:16:38;12.50;85.30
30865;DHT22;17574;49.418;11.038;2023-05-07T04:19:04;12.70;87.20
30865;DHT22;17574;49.418;11.038;2023-05-07T04:21:32;12.40;87.80
30865;DHT22;17574;49.418;11.038;2023-05-07T04:23:58;12.50;86.20
30865;DHT22;17574;49.418;11.038;2023-05-07T04:26:25;12.50;87.30
30865;DHT22;17574;49.418;11.038;2023-05-07T04:28:52;12.60;86.10
30865;DHT22;17574;49.418;11.038;2023-05-07T04:31:19;12.60;87.60
30865;DHT22;17574;49.418;11.038;2023-05-07T04:33:48;12.50;87.70
30865;DHT22;17574;49.418;11.038;2023-05-07T04:36:15;12.60;87.80
30865;DHT22;17574;49.418;11.038;2023-05-07T04:38:41;12.60;87.90
30865;DHT22;17574;49.418;11.038;2023-05-07T04:41:08;12.70;87.90
30865;DHT22;17574;49.418;11.038;2023-05-07T04:43:35;12.80;87.90
30865;DHT22;17574;49.418;11.038;2023-05-07T04:46:01;12.80;87.30
30865;DHT22;17574;49.418;11.038;2023-05-07T04:48:28;12.90;88.10
30865;DHT22;17574;49.418;11.038;2023-05-07T04:50:55;13.00;87.00
30865;DHT22;17574;49.418;11.038;2023-05-07T04:53:22;13.00;86.60
30865;DHT22;17574;49.418;11.038;2023-05-07T04:55:48;13.10;85.10
30865;DHT22;17574;49.418;11.038;2023-05-07T04:58:15;13.10;85.90
30865;DHT22;17574;49.418;11.038;2023-05-07T05:00:42;13.20;84.90
30865;DHT22;17574;49.418;11.038;2023-05-07T05:03:08;13.40;83.40
30865;DHT22;17574;49.418;11.038;2023-05-07T05:05:35;13.50;80.90
30865;DHT22;17574;49.418;11.038;2023-05-07T05:08:02;13.60;77.80
30865;DHT22;17574;49.418;11.038;2023-05-07T05:10:29;13.70;72.20
30865;DHT22;17574;49.418;11.038;2023-05-07T05:12:55;13.80;66.20
30865;DHT22;17574;49.418;11.038;2023-05-07T05:15:22;13.90;60.50
30865;DHT22;17574;49.418;11.038;2023-05-07T05:17:49;14.10;59.20
30865;DHT22;17574;49.418;11.038;2023-05-07T05:20:15;15.30;54.90
30865;DHT22;17574;49.418;11.038;2023-05-07T05:22:42;14.30;52.20
30865;DHT22;17574;49.418;11.038;2023-05-07T05:25:09;14.40;48.70
30865;DHT22;17574;49.418;11.038;2023-05-07T05:27:35;14.60;46.10
30865;DHT22;17574;49.418;11.038;2023-05-07T05:30:03;14.70;43.60
30865;DHT22;17574;49.418;11.038;2023-05-07T05:32:30;14.70;41.10
30865;DHT22;17574;49.418;11.038;2023-05-07T05:34:57;14.80;40.00
30865;DHT22;17574;49.418;11.038;2023-05-07T05:37:23;14.80;39.70
30865;DHT22;17574;49.418;11.038;2023-05-07T05:39:51;14.90;38.20
30865;DHT22;17574;49.418;11.038;2023-05-07T05:42:17;14.90;39.50
30865;DHT22;17574;49.418;11.038;2023-05-07T05:44:44;14.80;36.60
30865;DHT22;17574;49.418;11.038;2023-05-07T05:47:10;17.00;38.70
30865;DHT22;17574;49.418;11.038;2023-05-07T05:49:37;14.90;36.30
30865;DHT22;17574;49.418;11.038;2023-05-07T05:52:04;14.90;38.20
30865;DHT22;17574;49.418;11.038;2023-05-07T05:54:31;15.00;38.30
30865;DHT22;17574;49.418;11.038;2023-05-07T05:56:58;15.00;35.10
30865;DHT22;17574;49.418;11.038;2023-05-07T05:59:24;15.10;36.50
30865;DHT22;17574;49.418;11.038;2023-05-07T06:01:51;15.10;35.20
30865;DHT22;17574;49.418;11.038;2023-05-07T06:04:18;15.20;33.40
30865;DHT22;17574;49.418;11.038;2023-05-07T06:06:45;15.20;32.90
30865;DHT22;17574;49.418;11.038;2023-05-07T06:09:11;15.20;32.80
30865;DHT22;17574;49.418;11.038;2023-05-07T06:11:38;15.30;33.50
30865;DHT22;17574;49.418;11.038;2023-05-07T06:14:06;15.30;32.90
30865;DHT22;17574;49.418;11.038;2023-05-07T06:16:32;15.40;31.30
30865;DHT22;17574;49.418;11.038;2023-05-07T06:18:59;15.50;30.00
30865;DHT22;17574;49.418;11.038;2023-05-07T06:21:26;15.40;30.00
30865;DHT22;17574;49.418;11.038;2023-05-07T06:23:53;15.70;28.20
30865;DHT22;17574;49.418;11.038;2023-05-07T06:26:21;15.70;28.20
30865;DHT22;17574;49.418;11.038;2023-05-07T06:28:48;16.70;29.00
30865;DHT22;17574;49.418;11.038;2023-05-07T06:31:15;15.90;26.30
30865;DHT22;17574;49.418;11.038;2023-05-07T06:33:44;16.00;26.60
30865;DHT22;17574;49.418;11.038;2023-05-07T06:36:10;16.10;24.00
30865;DHT22;17574;49.418;11.038;2023-05-07T06:38:37;16.20;24.00
30865;DHT22;17574;49.418;11.038;2023-05-07T06:41:05;16.40;22.70
30865;DHT22;17574;49.418;11.038;2023-05-07T06:43:32;16.20;21.60
30865;DHT22;17574;49.418;11.038;2023-05-07T06:45:58;16.60;21.00
30865;DHT22;17574;49.418;11.038;2023-05-07T06:48:25;16.70;20.50
30865;DHT22;17574;49.418;11.038;2023-05-07T06:50:52;17.00;20.10
30865;DHT22;17574;49.418;11.038;2023-05-07T06:53:19;17.30;16.90
30865;DHT22;17574;49.418;11.038;2023-05-07T06:55:46;17.70;15.40
30865;DHT22;17574;49.418;11.038;2023-05-07T06:58:12;18.10;16.00
30865;DHT22;17574;49.418;11.038;2023-05-07T07:00:39;18.70;6.80
30865;DHT22;17574;49.418;11.038;2023-05-07T07:03:07;19.00;6.10
30865;DHT22;17574;49.418;11.038;2023-05-07T07:05:33;19.10;3.00
30865;DHT22;17574;49.418;11.038;2023-05-07T07:08:00;19.20;3.60
30865;DHT22;17574;49.418;11.038;2023-05-07T07:10:27;19.10;1.40
30865;DHT22;17574;49.418;11.038;2023-05-07T07:12:53;19.20;3.60
30865;DHT22;17574;49.418;11.038;2023-05-07T07:15:20;19.30;2.70
30865;DHT22;17574;49.418;11.038;2023-05-07T07:17:47;19.50;1.00
30865;DHT22;17574;49.418;11.038;2023-05-07T07:20:14;19.70;1.00
30865;DHT22;17574;49.418;11.038;2023-05-07T07:22:41;20.00;1.00
30865;DHT22;17574;49.418;11.038;2023-05-07T07:25:08;20.00;1.00
30865;DHT22;17574;49.418;11.038;2023-05-07T07:27:36;19.90;1.00
30865;DHT22;17574;49.418;11.038;2023-05-07T07:30:03;20.10;1.00
30865;DHT22;17574;49.418;11.038;2023-05-07T07:32:30;20.30;1.00
30865;DHT22;17574;49.418;11.038;2023-05-07T07:34:58;20.50;1.00
30865;DHT22;17574;49.418;11.038;2023-05-07T07:37:25;20.60;1.00
30865;DHT22;17574;49.418;11.038;2023-05-07T07:39:51;20.70;1.00
30865;DHT22;17574;49.418;11.038;2023-05-07T07:42:18;20.50;1.00
30865;DHT22;17574;49.418;11.038;2023-05-07T07:44:45;20.60;1.00
30865;DHT22;17574;49.418;11.038;2023-05-07T07:47:11;20.50;1.00
30865;DHT22;17574;49.418;11.038;2023-05-07T07:49:38;20.30;1.00
30865;DHT22;17574;49.418;11.038;2023-05-07T07:52:05;20.30;1.00
30865;DHT22;17574;49.418;11.038;2023-05-07T07:54:32;20.20;1.00
30865;DHT22;17574;49.418;11.038;2023-05-07T07:56:58;20.20;1.00
30865;DHT22;17574;49.418;11.038;2023-05-07T07:59:26;20.60;1.00
30865;DHT22;17574;49.418;11.038;2023-05-07T08:01:52;20.90;1.00
30865;DHT22;17574;49.418;11.038;2023-05-07T08:04:22;21.30;1.00
30865;DHT22;17574;49.418;11.038;2023-05-07T08:06:48;21.60;1.00
30865;DHT22;17574;49.418;11.038;2023-05-07T08:09:16;22.10;1.00
30865;DHT22;17574;49.418;11.038;2023-05-07T08:11:42;22.50;1.00
30865;DHT22;17574;49.418;11.038;2023-05-07T08:14:09;22.90;1.00
30865;DHT22;17574;49.418;11.038;2023-05-07T08:16:36;23.40;1.00
30865;DHT22;17574;49.418;11.038;2023-05-07T08:19:02;23.80;1.00
30865;DHT22;17574;49.418;11.038;2023-05-07T08:21:29;23.90;1.00
30865;DHT22;17574;49.418;11.038;2023-05-07T08:23:59;23.90;1.00
30865;DHT22;17574;49.418;11.038;2023-05-07T08:26:28;23.80;1.00
30865;DHT22;17574;49.418;11.038;2023-05-07T08:28:55;24.10;1.00
30865;DHT22;17574;49.418;11.038;2023-05-07T08:31:21;24.70;1.00
30865;DHT22;17574;49.418;11.038;2023-05-07T08:33:48;25.10;1.00
30865;DHT22;17574;49.418;11.038;2023-05-07T08:36:15;25.80;1.00
30865;DHT22;17574;49.418;11.038;2023-05-07T08:38:42;26.30;1.00
30865;DHT22;17574;49.418;11.038;2023-05-07T08:41:10;26.80;1.00
30865;DHT22;17574;49.418;11.038;2023-05-07T08:43:37;27.70;1.00
30865;DHT22;17574;49.418;11.038;2023-05-07T08:46:04;28.70;1.00
30865;DHT22;17574;49.418;11.038;2023-05-07T08:48:35;29.40;1.00
30865;DHT22;17574;49.418;11.038;2023-05-07T08:51:02;29.30;1.00
30865;DHT22;17574;49.418;11.038;2023-05-07T08:53:28;29.00;1.00
30865;DHT22;17574;49.418;11.038;2023-05-07T08:55:55;29.40;1.00
30865;DHT22;17574;49.418;11.038;2023-05-07T08:58:22;30.60;1.00
30865;DHT22;17574;49.418;11.038;2023-05-07T09:00:49;32.20;1.00
30865;DHT22;17574;49.418;11.038;2023-05-07T09:03:16;32.30;1.00
30865;DHT22;17574;49.418;11.038;2023-05-07T09:05:43;32.20;1.00
30865;DHT22;17574;49.418;11.038;2023-05-07T09:08:14;32.00;1.00
30865;DHT22;17574;49.418;11.038;2023-05-07T09:10:41;31.90;1.00
30865;DHT22;17574;49.418;11.038;2023-05-07T09:13:08;33.10;1.00
30865;DHT22;17574;49.418;11.038;2023-05-07T09:15:37;33.10;1.00
30865;DHT22;17574;49.418;11.038;2023-05-07T09:18:03;32.30;1.00
30865;DHT22;17574;49.418;11.038;2023-05-07T09:20:30;31.50;1.00
30865;DHT22;17574;49.418;11.038;2023-05-07T09:22:57;31.60;1.00
30865;DHT22;17574;49.418;11.038;2023-05-07T09:25:30;32.30;1.00
30865;DHT22;17574;49.418;11.038;2023-05-07T09:27:57;33.30;1.00
30865;DHT22;17574;49.418;11.038;2023-05-07T09:30:27;34.00;1.00
30865;DHT22;17574;49.418;11.038;2023-05-07T09:32:53;34.70;1.00
30865;DHT22;17574;49.418;11.038;2023-05-07T09:35:20;34.60;1.00
30865;DHT22;17574;49.418;11.038;2023-05-07T09:37:53;33.10;1.00
30865;DHT22;17574;49.418;11.038;2023-05-07T09:40:30;31.70;1.00
30865;DHT22;17574;49.418;11.038;2023-05-07T09:43:08;30.30;1.00
30865;DHT22;17574;49.418;11.038;2023-05-07T09:45:34;29.30;1.00
30865;DHT22;17574;49.418;11.038;2023-05-07T09:48:02;29.00;1.00
30865;DHT22;17574;49.418;11.038;2023-05-07T09:50:47;28.20;1.00
30865;DHT22;17574;49.418;11.038;2023-05-07T09:53:14;27.70;1.00
30865;DHT22;17574;49.418;11.038;2023-05-07T09:55:43;26.90;1.00
30865;DHT22;17574;49.418;11.038;2023-05-07T09:58:10;26.60;1.00
30865;DHT22;17574;49.418;11.038;2023-05-07T10:00:39;26.60;1.00
30865;DHT22;17574;49.418;11.038;2023-05-07T10:03:06;26.50;1.00
30865;DHT22;17574;49.418;11.038;2023-05-07T10:05:34;26.70;1.00
30865;DHT22;17574;49.418;11.038;2023-05-07T10:08:01;26.50;1.00
30865;DHT22;17574;49.418;11.038;2023-05-07T10:10:33;26.30;1.00
30865;DHT22;17574;49.418;11.038;2023-05-07T10:13:00;26.40;1.00
30865;DHT22;17574;49.418;11.038;2023-05-07T10:15:28;26.60;1.00
30865;DHT22;17574;49.418;11.038;2023-05-07T10:17:55;26.60;1.00
30865;DHT22;17574;49.418;11.038;2023-05-07T10:20:22;26.40;1.00
30865;DHT22;17574;49.418;11.038;2023-05-07T10:22:49;26.20;1.00
30865;DHT22;17574;49.418;11.038;2023-05-07T10:25:25;26.30;1.00
30865;DHT22;17574;49.418;11.038;2023-05-07T10:27:52;26.20;1.00
30865;DHT22;17574;49.418;11.038;2023-05-07T10:32:56;25.70;1.00
30865;DHT22;17574;49.418;11.038;2023-05-07T10:35:36;25.50;1.00
30865;DHT22;17574;49.418;11.038;2023-05-07T10:38:04;25.30;1.00
30865;DHT22;17574;49.418;11.038;2023-05-07T10:40:31;25.70;1.00
30865;DHT22;17574;49.418;11.038;2023-05-07T10:43:01;25.90;1.00
30865;DHT22;17574;49.418;11.038;2023-05-07T10:45:29;26.10;1.00
30865;DHT22;17574;49.418;11.038;2023-05-07T10:51:17;26.20;1.00
30865;DHT22;17574;49.418;11.038;2023-05-07T10:53:40;25.90;1.00
30865;DHT22;17574;49.418;11.038;2023-05-07T10:58:46;26.00;1.00
30865;DHT22;17574;49.418;11.038;2023-05-07T11:01:13;26.00;1.00
30865;DHT22;17574;49.418;11.038;2023-05-07T11:06:26;26.00;1.00
30865;DHT22;17574;49.418;11.038;2023-05-07T11:08:55;26.10;1.00
30865;DHT22;17574;49.418;11.038;2023-05-07T11:14:07;26.80;1.00
30865;DHT22;17574;49.418;11.038;2023-05-07T11:16:34;27.30;1.00
30865;DHT22;17574;49.418;11.038;2023-05-07T11:19:03;27.70;1.00
30865;DHT22;17574;49.418;11.038;2023-05-07T11:21:36;27.50;1.00
30865;DHT22;17574;49.418;11.038;2023-05-07T11:24:04;27.30;1.00
30865;DHT22;17574;49.418;11.038;2023-05-07T11:26:31;27.30;1.00
30865;DHT22;17574;49.418;11.038;2023-05-07T11:29:25;27.20;1.00
30865;DHT22;17574;49.418;11.038;2023-05-07T11:31:52;27.20;1.00
30865;DHT22;17574;49.418;11.038;2023-05-07T11:34:20;26.40;1.00
30865;DHT22;17574;49.418;11.038;2023-05-07T11:36:47;27.20;1.00
30865;DHT22;17574;49.418;11.038;2023-05-07T11:39:23;27.30;1.00
30865;DHT22;17574;49.418;11.038;2023-05-07T11:41:50;27.50;1.00
30865;DHT22;17574;49.418;11.038;2023-05-07T11:44:19;27.60;1.00
30865;DHT22;17574;49.418;11.038;2023-05-07T11:46:45;27.70;1.00
30865;DHT22;17574;49.418;11.038;2023-05-07T11:49:13;27.70;1.00
30865;DHT22;17574;49.418;11.038;2023-05-07T11:51:40;27.50;1.00
30865;DHT22;17574;49.418;11.038;2023-05-07T11:54:08;27.50;1.00
30865;DHT22;17574;49.418;11.038;2023-05-07T11:56:37;27.50;1.00
30865;DHT22;17574;49.418;11.038;2023-05-07T11:59:04;27.40;1.00
30865;DHT22;17574;49.418;11.038;2023-05-07T12:01:31;27.00;1.00
30865;DHT22;17574;49.418;11.038;2023-05-07T12:03:57;26.80;1.00
30865;DHT22;17574;49.418;11.038;2023-05-07T12:06:24;26.80;1.00
30865;DHT22;17574;49.418;11.038;2023-05-07T12:08:51;26.70;1.00
30865;DHT22;17574;49.418;11.038;2023-05-07T12:11:24;26.60;1.00
30865;DHT22;17574;49.418;11.038;2023-05-07T12:13:51;26.60;1.00
30865;DHT22;17574;49.418;11.038;2023-05-07T12:16:18;26.70;1.00
30865;DHT22;17574;49.418;11.038;2023-05-07T12:18:45;26.60;1.00
30865;DHT22;17574;49.418;11.038;2023-05-07T12:21:12;26.80;1.00
30865;DHT22;17574;49.418;11.038;2023-05-07T12:23:39;26.70;1.00
30865;DHT22;17574;49.418;11.038;2023-05-07T12:26:06;26.90;1.00
30865;DHT22;17574;49.418;11.038;2023-05-07T12:28:37;26.90;1.00
30865;DHT22;17574;49.418;11.038;2023-05-07T12:31:04;27.10;1.00
30865;DHT22;17574;49.418;11.038;2023-05-07T12:33:32;27.00;1.00
30865;DHT22;17574;49.418;11.038;2023-05-07T12:36:02;27.00;1.00
30865;DHT22;17574;49.418;11.038;2023-05-07T12:38:33;27.10;1.00
30865;DHT22;17574;49.418;11.038;2023-05-07T12:41:00;27.20;1.00
30865;DHT22;17574;49.418;11.038;2023-05-07T12:43:27;27.40;1.00
30865;DHT22;17574;49.418;11.038;2023-05-07T12:45:55;27.50;1.00
30865;DHT22;17574;49.418;11.038;2023-05-07T12:48:22;27.50;1.00
30865;DHT22;17574;49.418;11.038;2023-05-07T12:50:50;27.70;1.00
30865;DHT22;17574;49.418;11.038;2023-05-07T12:53:16;27.80;1.00
30865;DHT22;17574;49.418;11.038;2023-05-07T12:55:47;27.90;1.00
30865;DHT22;17574;49.418;11.038;2023-05-07T12:58:18;28.00;1.00
30865;DHT22;17574;49.418;11.038;2023-05-07T13:00:46;27.90;1.00
30865;DHT22;17574;49.418;11.038;2023-05-07T13:03:20;27.70;1.00
30865;DHT22;17574;49.418;11.038;2023-05-07T13:05:47;27.40;1.00
30865;DHT22;17574;49.418;11.038;2023-05-07T13:08:22;27.60;1.00
30865;DHT22;17574;49.418;11.038;2023-05-07T13:10:49;27.80;1.00
30865;DHT22;17574;49.418;11.038;2023-05-07T13:13:16;27.90;1.00
30865;DHT22;17574;49.418;11.038;2023-05-07T13:15:42;28.40;1.00
30865;DHT22;17574;49.418;11.038;2023-05-07T13:18:09;28.20;1.00
30865;DHT22;17574;49.418;11.038;2023-05-07T13:20:37;28.20;1.00
30865;DHT22;17574;49.418;11.038;2023-05-07T13:23:04;28.10;1.00
30865;DHT22;17574;49.418;11.038;2023-05-07T13:25:31;28.20;1.00
30865;DHT22;17574;49.418;11.038;2023-05-07T13:27:57;27.90;1.00
30865;DHT22;17574;49.418;11.038;2023-05-07T13:30:36;27.90;1.00
30865;DHT22;17574;49.418;11.038;2023-05-07T13:33:03;27.90;1.00
30865;DHT22;17574;49.418;11.038;2023-05-07T13:35:29;27.50;1.00
30865;DHT22;17574;49.418;11.038;2023-05-07T13:37:56;27.20;1.00
30865;DHT22;17574;49.418;11.038;2023-05-07T13:40:23;27.00;1.00
30865;DHT22;17574;49.418;11.038;2023-05-07T13:42:50;26.80;1.00
30865;DHT22;17574;49.418;11.038;2023-05-07T13:45:18;26.60;1.00
30865;DHT22;17574;49.418;11.038;2023-05-07T13:47:45;26.40;1.00
30865;DHT22;17574;49.418;11.038;2023-05-07T13:50:12;26.30;1.00
30865;DHT22;17574;49.418;11.038;2023-05-07T13:52:42;26.20;1.00
30865;DHT22;17574;49.418;11.038;2023-05-07T13:55:12;25.90;1.00
30865;DHT22;17574;49.418;11.038;2023-05-07T13:57:39;25.90;1.00
30865;DHT22;17574;49.418;11.038;2023-05-07T14:00:06;25.80;1.00
30865;DHT22;17574;49.418;11.038;2023-05-07T14:02:33;25.50;1.00
30865;DHT22;17574;49.418;11.038;2023-05-07T14:04:59;25.40;1.00
30865;DHT22;17574;49.418;11.038;2023-05-07T14:07:26;25.10;1.00
30865;DHT22;17574;49.418;11.038;2023-05-07T14:09:53;24.80;1.00
30865;DHT22;17574;49.418;11.038;2023-05-07T14:12:20;24.60;1.00
30865;DHT22;17574;49.418;11.038;2023-05-07T14:14:46;24.60;1.00
30865;DHT22;17574;49.418;11.038;2023-05-07T14:17:13;24.40;1.00
30865;DHT22;17574;49.418;11.038;2023-05-07T14:19:40;24.30;1.00
30865;DHT22;17574;49.418;11.038;2023-05-07T14:22:07;24.30;1.00
30865;DHT22;17574;49.418;11.038;2023-05-07T14:24:34;24.20;1.00
30865;DHT22;17574;49.418;11.038;2023-05-07T14:27:04;24.20;1.00
30865;DHT22;17574;49.418;11.038;2023-05-07T14:29:31;24.10;1.00
30865;DHT22;17574;49.418;11.038;2023-05-07T14:31:57;24.10;1.00
30865;DHT22;17574;49.418;11.038;2023-05-07T14:34:24;24.10;1.00
30865;DHT22;17574;49.418;11.038;2023-05-07T14:36:51;24.10;1.00
30865;DHT22;17574;49.418;11.038;2023-05-07T14:39:18;23.90;1.00
30865;DHT22;17574;49.418;11.038;2023-05-07T14:41:45;24.00;1.00
30865;DHT22;17574;49.418;11.038;2023-05-07T14:44:11;24.00;1.00
30865;DHT22;17574;49.418;11.038;2023-05-07T14:46:38;24.10;1.00
30865;DHT22;17574;49.418;11.038;2023-05-07T14:49:05;23.90;1.00
30865;DHT22;17574;49.418;11.038;2023-05-07T14:51:32;23.90;1.00
30865;DHT22;17574;49.418;11.038;2023-05-07T14:53:59;23.80;1.00
30865;DHT22;17574;49.418;11.038;2023-05-07T14:56:26;23.70;1.00
30865;DHT22;17574;49.418;11.038;2023-05-07T14:58:53;23.70;1.00
30865;DHT22;17574;49.418;11.038;2023-05-07T15:01:20;23.60;1.00
30865;DHT22;17574;49.418;11.038;2023-05-07T15:03:47;23.60;1.00
30865;DHT22;17574;49.418;11.038;2023-05-07T15:06:13;23.60;1.00
30865;DHT22;17574;49.418;11.038;2023-05-07T15:08:40;23.50;1.00
30865;DHT22;17574;49.418;11.038;2023-05-07T15:11:07;23.50;1.00
30865;DHT22;17574;49.418;11.038;2023-05-07T15:13:34;23.50;1.00
30865;DHT22;17574;49.418;11.038;2023-05-07T15:16:00;23.40;1.00
30865;DHT22;17574;49.418;11.038;2023-05-07T15:18:27;23.40;1.00
30865;DHT22;17574;49.418;11.038;2023-05-07T15:25:48;23.30;1.00
30865;DHT22;17574;49.418;11.038;2023-05-07T15:35:38;23.30;1.00
30865;DHT22;17574;49.418;11.038;2023-05-07T15:38:05;23.40;1.00
30865;DHT22;17574;49.418;11.038;2023-05-07T15:40:32;23.30;1.00
30865;DHT22;17574;49.418;11.038;2023-05-07T15:43:00;23.30;1.00
30865;DHT22;17574;49.418;11.038;2023-05-07T15:45:27;23.10;1.00
30865;DHT22;17574;49.418;11.038;2023-05-07T15:50:21;22.90;1.00
30865;DHT22;17574;49.418;11.038;2023-05-07T15:57:42;22.80;1.00
30865;DHT22;17574;49.418;11.038;2023-05-07T16:00:10;22.60;1.00
30865;DHT22;17574;49.418;11.038;2023-05-07T16:05:05;22.60;1.00
30865;DHT22;17574;49.418;11.038;2023-05-07T16:10:03;22.60;1.00
30865;DHT22;17574;49.418;11.038;2023-05-07T16:12:30;22.50;1.00
30865;DHT22;17574;49.418;11.038;2023-05-07T16:14:57;22.50;1.00
30865;DHT22;17574;49.418;11.038;2023-05-07T16:17:23;22.50;1.00
30865;DHT22;17574;49.418;11.038;2023-05-07T16:22:17;22.40;1.00
30865;DHT22;17574;49.418;11.038;2023-05-07T16:24:44;22.30;1.00
30865;DHT22;17574;49.418;11.038;2023-05-07T16:27:11;22.20;1.00